sensor_id;sensor_type;location;lat;lon;timestamp;P1;durP1;ratioP1;P2;durP2;ratioP2
20832;SDS011;56075;51.264;7.150;2022-09-29T00:00:55;31.93;;;11.40;;
20832;SDS011;56075;51.264;7.150;2022-09-29T00:03:27;34.30;;;12.40;;
20832;SDS011;56075;51.264;7.150;2022-09-29T00:05:58;33.47;;;11.60;;
20832;SDS011;56075;51.264;7.150;2022-09-29T00:08:30;34.47;;;12.03;;
20832;SDS011;56075;51.264;7.150;2022-09-29T00:11:05;34.17;;;12.10;;
20832;SDS011;56075;51.264;7.150;2022-09-29T00:13:37;35.87;;;13.70;;
20832;SDS011;56075;51.264;7.150;2022-09-29T00:16:09;35.27;;;14.93;;
20832;SDS011;56075;51.264;7.150;2022-09-29T00:18:40;36.37;;;16.03;;
20832;SDS011;56075;51.264;7.150;2022-09-29T00:21:14;34.60;;;13.27;;
20832;SDS011;56075;51.264;7.150;2022-09-29T00:23:46;39.63;;;13.87;;
20832;SDS011;56075;51.264;7.150;2022-09-29T00:26:19;35.83;;;12.87;;
20832;SDS011;56075;51.264;7.150;2022-09-29T00:28:56;37.70;;;13.70;;
20832;SDS011;56075;51.264;7.150;2022-09-29T00:31:28;41.00;;;13.27;;
20832;SDS011;56075;51.264;7.150;2022-09-29T00:34:00;36.10;;;12.90;;
20832;SDS011;56075;51.264;7.150;2022-09-29T00:36:33;38.77;;;12.10;;
20832;SDS011;56075;51.264;7.150;2022-09-29T00:39:04;33.37;;;12.03;;
20832;SDS011;56075;51.264;7.150;2022-09-29T00:41:37;34.97;;;12.13;;
20832;SDS011;56075;51.264;7.150;2022-09-29T00:44:58;31.60;;;12.00;;
20832;SDS011;56075;51.264;7.150;2022-09-29T00:47:38;31.73;;;11.77;;
20832;SDS011;56075;51.264;7.150;2022-09-29T00:50:17;33.57;;;11.40;;
20832;SDS011;56075;51.264;7.150;2022-09-29T00:52:51;30.27;;;11.77;;
20832;SDS011;56075;51.264;7.150;2022-09-29T00:55:27;29.77;;;11.03;;
20832;SDS011;56075;51.264;7.150;2022-09-29T00:58:02;28.07;;;10.77;;
20832;SDS011;56075;51.264;7.150;2022-09-29T01:00:36;26.63;;;10.50;;
20832;SDS011;56075;51.264;7.150;2022-09-29T01:03:08;26.13;;;9.80;;
20832;SDS011;56075;51.264;7.150;2022-09-29T01:05:44;27.00;;;10.80;;
20832;SDS011;56075;51.264;7.150;2022-09-29T01:08:22;31.80;;;11.80;;
20832;SDS011;56075;51.264;7.150;2022-09-29T01:10:54;27.93;;;11.10;;
20832;SDS011;56075;51.264;7.150;2022-09-29T01:13:27;24.73;;;10.37;;
20832;SDS011;56075;51.264;7.150;2022-09-29T01:15:59;33.90;;;11.20;;
20832;SDS011;56075;51.264;7.150;2022-09-29T01:18:32;22.50;;;10.00;;
20832;SDS011;56075;51.264;7.150;2022-09-29T01:21:10;29.10;;;10.63;;
20832;SDS011;56075;51.264;7.150;2022-09-29T01:32:18;23.60;;;9.67;;
20832;SDS011;56075;51.264;7.150;2022-09-29T01:41:02;25.27;;;9.73;;
20832;SDS011;56075;51.264;7.150;2022-09-29T01:43:15;28.63;;;10.60;;
20832;SDS011;56075;51.264;7.150;2022-09-29T01:45:50;21.63;;;9.40;;
20832;SDS011;56075;51.264;7.150;2022-09-29T01:48:24;28.00;;;10.37;;
20832;SDS011;56075;51.264;7.150;2022-09-29T01:50:58;25.43;;;10.00;;
20832;SDS011;56075;51.264;7.150;2022-09-29T01:53:34;25.70;;;9.87;;
20832;SDS011;56075;51.264;7.150;2022-09-29T01:56:08;30.57;;;10.40;;
20832;SDS011;56075;51.264;7.150;2022-09-29T01:59:31;23.80;;;9.43;;
20832;SDS011;56075;51.264;7.150;2022-09-29T02:01:33;21.90;;;9.40;;
20832;SDS011;56075;51.264;7.150;2022-09-29T02:04:09;27.00;;;10.27;;
20832;SDS011;56075;51.264;7.150;2022-09-29T02:06:45;26.53;;;9.63;;
20832;SDS011;56075;51.264;7.150;2022-09-29T02:09:19;28.27;;;9.80;;
20832;SDS011;56075;51.264;7.150;2022-09-29T02:11:54;25.67;;;10.17;;
20832;SDS011;56075;51.264;7.150;2022-09-29T02:14:28;23.20;;;9.20;;
20832;SDS011;56075;51.264;7.150;2022-09-29T02:17:03;32.60;;;11.27;;
20832;SDS011;56075;51.264;7.150;2022-09-29T02:19:37;30.97;;;10.13;;
20832;SDS011;56075;51.264;7.150;2022-09-29T02:22:11;27.97;;;9.90;;
20832;SDS011;56075;51.264;7.150;2022-09-29T02:24:42;29.13;;;10.00;;
20832;SDS011;56075;51.264;7.150;2022-09-29T02:27:14;26.97;;;10.03;;
20832;SDS011;56075;51.264;7.150;2022-09-29T02:29:45;26.53;;;9.97;;
20832;SDS011;56075;51.264;7.150;2022-09-29T02:32:17;26.77;;;9.63;;
20832;SDS011;56075;51.264;7.150;2022-09-29T02:34:49;28.47;;;10.23;;
20832;SDS011;56075;51.264;7.150;2022-09-29T02:46:31;25.30;;;9.60;;
20832;SDS011;56075;51.264;7.150;2022-09-29T02:51:26;24.93;;;10.43;;
20832;SDS011;56075;51.264;7.150;2022-09-29T02:54:25;29.40;;;9.67;;
20832;SDS011;56075;51.264;7.150;2022-09-29T02:57:13;28.57;;;10.30;;
20832;SDS011;56075;51.264;7.150;2022-09-29T02:59:51;23.47;;;9.20;;
20832;SDS011;56075;51.264;7.150;2022-09-29T03:02:24;24.00;;;10.10;;
20832;SDS011;56075;51.264;7.150;2022-09-29T03:04:56;24.90;;;9.40;;
20832;SDS011;56075;51.264;7.150;2022-09-29T03:07:27;27.47;;;10.13;;
20832;SDS011;56075;51.264;7.150;2022-09-29T03:09:59;25.47;;;9.80;;
20832;SDS011;56075;51.264;7.150;2022-09-29T03:12:30;28.10;;;9.47;;
20832;SDS011;56075;51.264;7.150;2022-09-29T03:15:02;27.73;;;9.60;;
20832;SDS011;56075;51.264;7.150;2022-09-29T03:17:34;27.17;;;9.90;;
20832;SDS011;56075;51.264;7.150;2022-09-29T03:20:05;37.33;;;10.97;;
20832;SDS011;56075;51.264;7.150;2022-09-29T03:22:37;28.50;;;10.33;;
20832;SDS011;56075;51.264;7.150;2022-09-29T03:25:08;25.83;;;10.33;;
20832;SDS011;56075;51.264;7.150;2022-09-29T03:27:40;26.90;;;9.53;;
20832;SDS011;56075;51.264;7.150;2022-09-29T03:30:12;24.30;;;9.57;;
20832;SDS011;56075;51.264;7.150;2022-09-29T03:32:43;26.60;;;9.67;;
20832;SDS011;56075;51.264;7.150;2022-09-29T03:35:15;23.20;;;9.40;;
20832;SDS011;56075;51.264;7.150;2022-09-29T03:37:46;28.03;;;9.73;;
20832;SDS011;56075;51.264;7.150;2022-09-29T03:40:17;27.80;;;10.27;;
20832;SDS011;56075;51.264;7.150;2022-09-29T03:42:49;23.33;;;9.47;;
20832;SDS011;56075;51.264;7.150;2022-09-29T03:45:20;26.30;;;9.83;;
20832;SDS011;56075;51.264;7.150;2022-09-29T03:47:52;28.50;;;10.83;;
20832;SDS011;56075;51.264;7.150;2022-09-29T03:50:23;27.00;;;10.13;;
20832;SDS011;56075;51.264;7.150;2022-09-29T03:52:54;26.20;;;10.27;;
20832;SDS011;56075;51.264;7.150;2022-09-29T03:55:26;27.17;;;9.57;;
20832;SDS011;56075;51.264;7.150;2022-09-29T03:57:57;26.77;;;9.80;;
20832;SDS011;56075;51.264;7.150;2022-09-29T04:00:29;24.77;;;10.37;;
20832;SDS011;56075;51.264;7.150;2022-09-29T04:03:00;34.03;;;11.10;;
20832;SDS011;56075;51.264;7.150;2022-09-29T04:05:33;27.77;;;9.70;;
20832;SDS011;56075;51.264;7.150;2022-09-29T04:08:07;24.40;;;9.63;;
20832;SDS011;56075;51.264;7.150;2022-09-29T04:10:39;24.53;;;10.20;;
20832;SDS011;56075;51.264;7.150;2022-09-29T04:13:11;22.27;;;9.57;;
20832;SDS011;56075;51.264;7.150;2022-09-29T04:15:42;27.53;;;10.10;;
20832;SDS011;56075;51.264;7.150;2022-09-29T04:18:14;27.37;;;9.80;;
20832;SDS011;56075;51.264;7.150;2022-09-29T04:20:45;27.20;;;9.97;;
20832;SDS011;56075;51.264;7.150;2022-09-29T04:23:17;26.97;;;10.40;;
20832;SDS011;56075;51.264;7.150;2022-09-29T04:25:48;27.37;;;10.30;;
20832;SDS011;56075;51.264;7.150;2022-09-29T04:28:20;28.70;;;9.90;;
20832;SDS011;56075;51.264;7.150;2022-09-29T04:30:51;25.57;;;10.30;;
20832;SDS011;56075;51.264;7.150;2022-09-29T04:33:22;27.10;;;10.37;;
20832;SDS011;56075;51.264;7.150;2022-09-29T04:35:54;28.13;;;9.87;;
20832;SDS011;56075;51.264;7.150;2022-09-29T04:38:26;23.50;;;9.47;;
20832;SDS011;56075;51.264;7.150;2022-09-29T04:40:57;25.47;;;9.97;;
20832;SDS011;56075;51.264;7.150;2022-09-29T04:43:29;23.93;;;9.47;;
20832;SDS011;56075;51.264;7.150;2022-09-29T04:46:02;26.27;;;9.97;;
20832;SDS011;56075;51.264;7.150;2022-09-29T04:48:33;24.53;;;10.20;;
20832;SDS011;56075;51.264;7.150;2022-09-29T04:51:05;28.17;;;10.00;;
20832;SDS011;56075;51.264;7.150;2022-09-29T04:53:37;30.23;;;10.37;;
20832;SDS011;56075;51.264;7.150;2022-09-29T04:56:09;29.03;;;10.57;;
20832;SDS011;56075;51.264;7.150;2022-09-29T04:58:41;28.17;;;10.37;;
20832;SDS011;56075;51.264;7.150;2022-09-29T05:01:12;33.13;;;10.77;;
20832;SDS011;56075;51.264;7.150;2022-09-29T05:03:43;27.67;;;11.00;;
20832;SDS011;56075;51.264;7.150;2022-09-29T05:06:15;28.63;;;11.63;;
20832;SDS011;56075;51.264;7.150;2022-09-29T05:08:46;32.97;;;11.57;;
20832;SDS011;56075;51.264;7.150;2022-09-29T05:11:18;34.23;;;11.47;;
20832;SDS011;56075;51.264;7.150;2022-09-29T05:13:49;26.50;;;10.80;;
20832;SDS011;56075;51.264;7.150;2022-09-29T05:16:21;31.03;;;11.23;;
20832;SDS011;56075;51.264;7.150;2022-09-29T05:18:53;30.97;;;11.80;;
20832;SDS011;56075;51.264;7.150;2022-09-29T05:21:24;27.90;;;11.17;;
20832;SDS011;56075;51.264;7.150;2022-09-29T05:23:56;34.57;;;11.37;;
20832;SDS011;56075;51.264;7.150;2022-09-29T05:26:27;28.07;;;10.70;;
20832;SDS011;56075;51.264;7.150;2022-09-29T05:28:59;29.43;;;10.90;;
20832;SDS011;56075;51.264;7.150;2022-09-29T05:31:31;30.43;;;11.40;;
20832;SDS011;56075;51.264;7.150;2022-09-29T05:34:02;27.73;;;11.07;;
20832;SDS011;56075;51.264;7.150;2022-09-29T05:36:34;27.83;;;10.93;;
20832;SDS011;56075;51.264;7.150;2022-09-29T05:39:06;29.07;;;11.07;;
20832;SDS011;56075;51.264;7.150;2022-09-29T05:41:37;54.25;;;17.27;;
20832;SDS011;56075;51.264;7.150;2022-09-29T05:44:08;41.00;;;12.90;;
20832;SDS011;56075;51.264;7.150;2022-09-29T05:46:40;30.27;;;10.90;;
20832;SDS011;56075;51.264;7.150;2022-09-29T05:49:11;31.27;;;11.47;;
20832;SDS011;56075;51.264;7.150;2022-09-29T05:51:43;30.27;;;11.07;;
20832;SDS011;56075;51.264;7.150;2022-09-29T05:54:15;30.90;;;11.03;;
20832;SDS011;56075;51.264;7.150;2022-09-29T05:56:46;27.10;;;10.63;;
20832;SDS011;56075;51.264;7.150;2022-09-29T05:59:18;32.83;;;11.57;;
20832;SDS011;56075;51.264;7.150;2022-09-29T06:01:50;37.80;;;13.10;;
20832;SDS011;56075;51.264;7.150;2022-09-29T06:04:21;37.27;;;12.87;;
20832;SDS011;56075;51.264;7.150;2022-09-29T06:06:52;34.17;;;13.93;;
20832;SDS011;56075;51.264;7.150;2022-09-29T06:09:26;35.50;;;13.30;;
20832;SDS011;56075;51.264;7.150;2022-09-29T06:11:57;32.23;;;13.27;;
20832;SDS011;56075;51.264;7.150;2022-09-29T06:14:29;32.97;;;13.07;;
20832;SDS011;56075;51.264;7.150;2022-09-29T06:17:00;31.70;;;13.07;;
20832;SDS011;56075;51.264;7.150;2022-09-29T06:19:35;31.70;;;11.90;;
20832;SDS011;56075;51.264;7.150;2022-09-29T06:22:07;35.07;;;12.80;;
20832;SDS011;56075;51.264;7.150;2022-09-29T06:24:38;29.13;;;11.43;;
20832;SDS011;56075;51.264;7.150;2022-09-29T06:27:09;32.77;;;12.43;;
20832;SDS011;56075;51.264;7.150;2022-09-29T06:29:41;35.43;;;11.23;;
20832;SDS011;56075;51.264;7.150;2022-09-29T06:32:13;28.83;;;12.27;;
20832;SDS011;56075;51.264;7.150;2022-09-29T06:34:44;33.27;;;13.17;;
20832;SDS011;56075;51.264;7.150;2022-09-29T06:37:36;34.77;;;12.67;;
20832;SDS011;56075;51.264;7.150;2022-09-29T06:40:09;36.77;;;12.67;;
20832;SDS011;56075;51.264;7.150;2022-09-29T06:42:40;34.53;;;12.13;;
20832;SDS011;56075;51.264;7.150;2022-09-29T06:45:12;42.87;;;14.00;;
20832;SDS011;56075;51.264;7.150;2022-09-29T06:47:43;35.27;;;13.20;;
20832;SDS011;56075;51.264;7.150;2022-09-29T06:50:15;38.10;;;13.83;;
20832;SDS011;56075;51.264;7.150;2022-09-29T06:52:46;42.03;;;13.70;;
20832;SDS011;56075;51.264;7.150;2022-09-29T06:55:19;47.57;;;17.47;;
20832;SDS011;56075;51.264;7.150;2022-09-29T06:57:51;59.08;;;19.58;;
20832;SDS011;56075;51.264;7.150;2022-09-29T07:00:22;53.92;;;16.98;;
20832;SDS011;56075;51.264;7.150;2022-09-29T07:02:53;47.83;;;15.70;;
20832;SDS011;56075;51.264;7.150;2022-09-29T07:05:25;49.83;;;15.70;;
20832;SDS011;56075;51.264;7.150;2022-09-29T07:07:58;42.43;;;14.37;;
20832;SDS011;56075;51.264;7.150;2022-09-29T07:10:29;44.13;;;15.67;;
20832;SDS011;56075;51.264;7.150;2022-09-29T07:13:01;45.47;;;16.00;;
20832;SDS011;56075;51.264;7.150;2022-09-29T07:15:32;41.93;;;14.53;;
20832;SDS011;56075;51.264;7.150;2022-09-29T07:18:04;48.50;;;16.17;;
20832;SDS011;56075;51.264;7.150;2022-09-29T07:20:36;48.70;;;16.90;;
20832;SDS011;56075;51.264;7.150;2022-09-29T07:23:08;55.73;;;18.40;;
20832;SDS011;56075;51.264;7.150;2022-09-29T07:25:39;57.97;;;21.23;;
20832;SDS011;56075;51.264;7.150;2022-09-29T07:28:11;74.03;;;23.83;;
20832;SDS011;56075;51.264;7.150;2022-09-29T07:30:42;76.53;;;21.97;;
20832;SDS011;56075;51.264;7.150;2022-09-29T07:33:13;66.33;;;22.13;;
20832;SDS011;56075;51.264;7.150;2022-09-29T07:35:46;80.30;;;23.87;;
20832;SDS011;56075;51.264;7.150;2022-09-29T07:38:22;82.50;;;24.07;;
20832;SDS011;56075;51.264;7.150;2022-09-29T07:40:53;71.80;;;21.93;;
20832;SDS011;56075;51.264;7.150;2022-09-29T07:43:25;72.40;;;20.87;;
20832;SDS011;56075;51.264;7.150;2022-09-29T07:45:56;68.57;;;21.20;;
20832;SDS011;56075;51.264;7.150;2022-09-29T07:48:30;85.87;;;23.07;;
20832;SDS011;56075;51.264;7.150;2022-09-29T07:53:36;70.73;;;19.20;;
20832;SDS011;56075;51.264;7.150;2022-09-29T07:56:09;70.33;;;20.50;;
20832;SDS011;56075;51.264;7.150;2022-09-29T07:58:41;79.70;;;20.73;;
20832;SDS011;56075;51.264;7.150;2022-09-29T08:01:12;76.67;;;20.77;;
20832;SDS011;56075;51.264;7.150;2022-09-29T08:03:48;90.60;;;21.83;;
20832;SDS011;56075;51.264;7.150;2022-09-29T08:06:21;87.63;;;21.13;;
20832;SDS011;56075;51.264;7.150;2022-09-29T08:08:54;94.73;;;20.77;;
20832;SDS011;56075;51.264;7.150;2022-09-29T08:11:27;81.60;;;20.50;;
20832;SDS011;56075;51.264;7.150;2022-09-29T08:13:59;98.33;;;22.23;;
20832;SDS011;56075;51.264;7.150;2022-09-29T08:16:34;104.17;;;23.60;;
20832;SDS011;56075;51.264;7.150;2022-09-29T08:19:06;109.80;;;23.63;;
20832;SDS011;56075;51.264;7.150;2022-09-29T08:21:38;112.57;;;22.70;;
20832;SDS011;56075;51.264;7.150;2022-09-29T08:24:11;118.77;;;24.30;;
20832;SDS011;56075;51.264;7.150;2022-09-29T08:26:43;120.03;;;24.83;;
20832;SDS011;56075;51.264;7.150;2022-09-29T08:29:14;112.00;;;23.93;;
20832;SDS011;56075;51.264;7.150;2022-09-29T08:31:47;119.23;;;25.37;;
20832;SDS011;56075;51.264;7.150;2022-09-29T08:34:18;115.30;;;25.23;;
20832;SDS011;56075;51.264;7.150;2022-09-29T08:36:50;123.43;;;25.33;;
20832;SDS011;56075;51.264;7.150;2022-09-29T08:39:22;115.10;;;25.10;;
20832;SDS011;56075;51.264;7.150;2022-09-29T08:47:16;132.97;;;26.27;;
20832;SDS011;56075;51.264;7.150;2022-09-29T08:50:04;119.77;;;24.97;;
20832;SDS011;56075;51.264;7.150;2022-09-29T08:52:42;120.53;;;25.93;;
20832;SDS011;56075;51.264;7.150;2022-09-29T08:57:46;134.00;;;27.63;;
20832;SDS011;56075;51.264;7.150;2022-09-29T09:00:19;133.80;;;26.80;;
20832;SDS011;56075;51.264;7.150;2022-09-29T09:03:01;125.73;;;27.33;;
20832;SDS011;56075;51.264;7.150;2022-09-29T09:11:49;136.20;;;28.13;;
20832;SDS011;56075;51.264;7.150;2022-09-29T09:17:19;120.50;;;26.33;;
20832;SDS011;56075;51.264;7.150;2022-09-29T09:20:17;135.43;;;27.53;;
20832;SDS011;56075;51.264;7.150;2022-09-29T09:23:09;136.83;;;28.33;;
20832;SDS011;56075;51.264;7.150;2022-09-29T09:25:46;139.03;;;27.77;;
20832;SDS011;56075;51.264;7.150;2022-09-29T09:28:30;128.63;;;26.33;;
20832;SDS011;56075;51.264;7.150;2022-09-29T09:31:07;120.37;;;25.03;;
20832;SDS011;56075;51.264;7.150;2022-09-29T09:39:27;89.10;;;21.93;;
20832;SDS011;56075;51.264;7.150;2022-09-29T09:42:06;84.18;;;23.40;;
20832;SDS011;56075;51.264;7.150;2022-09-29T09:44:40;77.97;;;20.00;;
20832;SDS011;56075;51.264;7.150;2022-09-29T09:50:07;68.57;;;17.13;;
20832;SDS011;56075;51.264;7.150;2022-09-29T09:52:44;61.90;;;16.17;;
20832;SDS011;56075;51.264;7.150;2022-09-29T09:55:22;57.60;;;14.67;;
20832;SDS011;56075;51.264;7.150;2022-09-29T10:00:52;57.23;;;15.33;;
20832;SDS011;56075;51.264;7.150;2022-09-29T10:03:33;54.77;;;14.63;;
20832;SDS011;56075;51.264;7.150;2022-09-29T10:06:05;56.07;;;15.27;;
20832;SDS011;56075;51.264;7.150;2022-09-29T10:08:38;65.67;;;16.27;;
20832;SDS011;56075;51.264;7.150;2022-09-29T10:13:59;45.93;;;14.13;;
20832;SDS011;56075;51.264;7.150;2022-09-29T10:16:36;58.40;;;13.77;;
20832;SDS011;56075;51.264;7.150;2022-09-29T10:19:19;46.07;;;13.80;;
20832;SDS011;56075;51.264;7.150;2022-09-29T10:21:52;43.00;;;12.67;;
20832;SDS011;56075;51.264;7.150;2022-09-29T10:24:27;48.03;;;13.67;;
20832;SDS011;56075;51.264;7.150;2022-09-29T10:27:00;44.03;;;14.17;;
20832;SDS011;56075;51.264;7.150;2022-09-29T10:32:15;40.63;;;11.20;;
20832;SDS011;56075;51.264;7.150;2022-09-29T10:35:21;29.10;;;8.83;;
20832;SDS011;56075;51.264;7.150;2022-09-29T10:37:59;20.20;;;6.53;;
20832;SDS011;56075;51.264;7.150;2022-09-29T10:43:34;21.27;;;7.80;;
20832;SDS011;56075;51.264;7.150;2022-09-29T10:46:53;22.93;;;8.27;;
20832;SDS011;56075;51.264;7.150;2022-09-29T10:49:17;22.03;;;8.10;;
20832;SDS011;56075;51.264;7.150;2022-09-29T10:54:31;28.00;;;8.83;;
20832;SDS011;56075;51.264;7.150;2022-09-29T10:57:15;21.50;;;8.00;;
20832;SDS011;56075;51.264;7.150;2022-09-29T10:59:54;22.87;;;7.83;;
20832;SDS011;56075;51.264;7.150;2022-09-29T11:05:14;22.57;;;8.57;;
20832;SDS011;56075;51.264;7.150;2022-09-29T11:07:50;22.90;;;9.13;;
20832;SDS011;56075;51.264;7.150;2022-09-29T11:10:26;23.47;;;7.40;;
20832;SDS011;56075;51.264;7.150;2022-09-29T11:13:30;16.97;;;6.13;;
20832;SDS011;56075;51.264;7.150;2022-09-29T11:18:54;16.10;;;5.63;;
20832;SDS011;56075;51.264;7.150;2022-09-29T11:30:08;17.47;;;6.07;;
20832;SDS011;56075;51.264;7.150;2022-09-29T11:38:50;19.53;;;7.23;;
20832;SDS011;56075;51.264;7.150;2022-09-29T11:41:43;20.83;;;6.73;;
20832;SDS011;56075;51.264;7.150;2022-09-29T11:52:39;17.70;;;6.67;;
20832;SDS011;56075;51.264;7.150;2022-09-29T12:00:54;16.40;;;7.20;;
20832;SDS011;56075;51.264;7.150;2022-09-29T12:03:49;16.57;;;6.87;;
20832;SDS011;56075;51.264;7.150;2022-09-29T12:06:53;16.57;;;7.23;;
20832;SDS011;56075;51.264;7.150;2022-09-29T12:12:43;16.43;;;7.33;;
20832;SDS011;56075;51.264;7.150;2022-09-29T12:18:12;16.90;;;4.57;;
20832;SDS011;56075;51.264;7.150;2022-09-29T12:20:47;9.77;;;4.83;;
20832;SDS011;56075;51.264;7.150;2022-09-29T12:26:09;11.83;;;4.63;;
20832;SDS011;56075;51.264;7.150;2022-09-29T12:34:13;5.03;;;3.00;;
20832;SDS011;56075;51.264;7.150;2022-09-29T12:36:50;8.00;;;2.97;;
20832;SDS011;56075;51.264;7.150;2022-09-29T12:42:20;6.55;;;2.45;;
20832;SDS011;56075;51.264;7.150;2022-09-29T12:45:26;4.67;;;2.70;;
20832;SDS011;56075;51.264;7.150;2022-09-29T12:51:37;7.87;;;2.70;;
20832;SDS011;56075;51.264;7.150;2022-09-29T12:54:24;6.28;;;1.88;;
20832;SDS011;56075;51.264;7.150;2022-09-29T12:59:57;7.53;;;2.40;;
20832;SDS011;56075;51.264;7.150;2022-09-29T13:02:54;6.00;;;2.33;;
20832;SDS011;56075;51.264;7.150;2022-09-29T13:09:02;4.47;;;1.90;;
20832;SDS011;56075;51.264;7.150;2022-09-29T13:12:34;2.85;;;1.98;;
20832;SDS011;56075;51.264;7.150;2022-09-29T13:18:00;8.75;;;2.20;;
20832;SDS011;56075;51.264;7.150;2022-09-29T13:26:38;3.40;;;1.55;;
20832;SDS011;56075;51.264;7.150;2022-09-29T13:29:20;2.13;;;1.27;;
20832;SDS011;56075;51.264;7.150;2022-09-29T13:31:53;3.03;;;1.25;;
20832;SDS011;56075;51.264;7.150;2022-09-29T13:34:30;4.07;;;1.88;;
20832;SDS011;56075;51.264;7.150;2022-09-29T13:37:14;3.90;;;1.50;;
20832;SDS011;56075;51.264;7.150;2022-09-29T13:40:01;4.70;;;1.60;;
20832;SDS011;56075;51.264;7.150;2022-09-29T13:45:16;2.53;;;1.20;;
20832;SDS011;56075;51.264;7.150;2022-09-29T13:50:47;4.80;;;1.35;;
20832;SDS011;56075;51.264;7.150;2022-09-29T13:53:27;2.40;;;1.23;;
20832;SDS011;56075;51.264;7.150;2022-09-29T13:56:13;6.25;;;1.20;;
20832;SDS011;56075;51.264;7.150;2022-09-29T14:01:34;3.45;;;1.23;;
20832;SDS011;56075;51.264;7.150;2022-09-29T14:07:33;3.33;;;0.77;;
20832;SDS011;56075;51.264;7.150;2022-09-29T14:18:54;4.05;;;1.20;;
20832;SDS011;56075;51.264;7.150;2022-09-29T14:21:54;2.03;;;0.90;;
20832;SDS011;56075;51.264;7.150;2022-09-29T14:30:11;5.40;;;1.20;;
20832;SDS011;56075;51.264;7.150;2022-09-29T14:32:59;1.08;;;0.90;;
20832;SDS011;56075;51.264;7.150;2022-09-29T14:36:09;2.80;;;1.10;;
20832;SDS011;56075;51.264;7.150;2022-09-29T14:38:48;3.47;;;1.77;;
20832;SDS011;56075;51.264;7.150;2022-09-29T14:41:25;3.22;;;1.75;;
20832;SDS011;56075;51.264;7.150;2022-09-29T14:44:04;5.80;;;2.10;;
20832;SDS011;56075;51.264;7.150;2022-09-29T14:58:10;3.33;;;1.70;;
20832;SDS011;56075;51.264;7.150;2022-09-29T15:04:06;4.65;;;1.90;;
20832;SDS011;56075;51.264;7.150;2022-09-29T15:06:47;4.07;;;1.70;;
20832;SDS011;56075;51.264;7.150;2022-09-29T15:09:22;5.20;;;1.50;;
20832;SDS011;56075;51.264;7.150;2022-09-29T15:11:55;2.45;;;1.30;;
20832;SDS011;56075;51.264;7.150;2022-09-29T15:14:33;3.25;;;1.48;;
20832;SDS011;56075;51.264;7.150;2022-09-29T15:17:06;2.53;;;1.42;;
20832;SDS011;56075;51.264;7.150;2022-09-29T15:22:24;4.90;;;2.25;;
20832;SDS011;56075;51.264;7.150;2022-09-29T15:27:48;3.53;;;1.63;;
20832;SDS011;56075;51.264;7.150;2022-09-29T15:30:21;4.95;;;1.65;;
20832;SDS011;56075;51.264;7.150;2022-09-29T15:32:54;5.15;;;1.90;;
20832;SDS011;56075;51.264;7.150;2022-09-29T15:38:29;4.28;;;1.70;;
20832;SDS011;56075;51.264;7.150;2022-09-29T15:41:12;3.20;;;2.00;;
20832;SDS011;56075;51.264;7.150;2022-09-29T15:43:52;3.08;;;1.50;;
20832;SDS011;56075;51.264;7.150;2022-09-29T15:49:06;3.95;;;1.70;;
20832;SDS011;56075;51.264;7.150;2022-09-29T15:52:02;5.25;;;1.70;;
20832;SDS011;56075;51.264;7.150;2022-09-29T15:54:39;6.47;;;1.60;;
20832;SDS011;56075;51.264;7.150;2022-09-29T15:57:26;1.83;;;1.30;;
20832;SDS011;56075;51.264;7.150;2022-09-29T16:05:33;2.40;;;1.42;;
20832;SDS011;56075;51.264;7.150;2022-09-29T16:08:12;4.20;;;1.33;;
20832;SDS011;56075;51.264;7.150;2022-09-29T16:10:51;3.33;;;1.17;;
20832;SDS011;56075;51.264;7.150;2022-09-29T16:13:33;4.15;;;1.40;;
20832;SDS011;56075;51.264;7.150;2022-09-29T16:16:11;4.03;;;1.77;;
20832;SDS011;56075;51.264;7.150;2022-09-29T16:18:46;4.60;;;1.85;;
20832;SDS011;56075;51.264;7.150;2022-09-29T16:21:22;4.68;;;1.73;;
20832;SDS011;56075;51.264;7.150;2022-09-29T16:24:14;2.63;;;1.48;;
20832;SDS011;56075;51.264;7.150;2022-09-29T16:26:49;3.40;;;1.45;;
20832;SDS011;56075;51.264;7.150;2022-09-29T16:32:01;5.32;;;1.67;;
20832;SDS011;56075;51.264;7.150;2022-09-29T16:41:06;4.32;;;1.98;;
20832;SDS011;56075;51.264;7.150;2022-09-29T16:43:49;6.47;;;1.63;;
20832;SDS011;56075;51.264;7.150;2022-09-29T16:46:21;5.65;;;1.98;;
20832;SDS011;56075;51.264;7.150;2022-09-29T16:48:53;3.45;;;1.90;;
20832;SDS011;56075;51.264;7.150;2022-09-29T16:51:24;4.80;;;1.90;;
20832;SDS011;56075;51.264;7.150;2022-09-29T16:53:56;4.60;;;1.98;;
20832;SDS011;56075;51.264;7.150;2022-09-29T16:56:29;4.10;;;2.40;;
20832;SDS011;56075;51.264;7.150;2022-09-29T16:59:10;8.75;;;2.67;;
20832;SDS011;56075;51.264;7.150;2022-09-29T17:01:46;7.57;;;2.70;;
20832;SDS011;56075;51.264;7.150;2022-09-29T17:04:18;9.95;;;3.22;;
20832;SDS011;56075;51.264;7.150;2022-09-29T17:06:49;9.05;;;3.17;;
20832;SDS011;56075;51.264;7.150;2022-09-29T17:09:22;10.95;;;3.40;;
20832;SDS011;56075;51.264;7.150;2022-09-29T17:11:55;8.18;;;2.97;;
20832;SDS011;56075;51.264;7.150;2022-09-29T17:14:26;6.03;;;2.90;;
20832;SDS011;56075;51.264;7.150;2022-09-29T17:17:00;5.80;;;2.88;;
20832;SDS011;56075;51.264;7.150;2022-09-29T17:19:32;9.50;;;2.80;;
20832;SDS011;56075;51.264;7.150;2022-09-29T17:22:08;5.30;;;2.78;;
20832;SDS011;56075;51.264;7.150;2022-09-29T17:24:57;7.15;;;3.05;;
20832;SDS011;56075;51.264;7.150;2022-09-29T17:27:28;7.18;;;2.67;;
20832;SDS011;56075;51.264;7.150;2022-09-29T17:30:19;7.43;;;3.00;;
20832;SDS011;56075;51.264;7.150;2022-09-29T17:32:54;7.68;;;3.50;;
20832;SDS011;56075;51.264;7.150;2022-09-29T17:35:29;7.07;;;2.40;;
20832;SDS011;56075;51.264;7.150;2022-09-29T17:38:03;7.35;;;2.72;;
20832;SDS011;56075;51.264;7.150;2022-09-29T17:43:22;6.45;;;2.90;;
20832;SDS011;56075;51.264;7.150;2022-09-29T17:45:54;7.43;;;4.40;;
20832;SDS011;56075;51.264;7.150;2022-09-29T17:48:28;7.88;;;3.90;;
20832;SDS011;56075;51.264;7.150;2022-09-29T17:51:00;8.90;;;3.58;;
20832;SDS011;56075;51.264;7.150;2022-09-29T17:53:36;7.75;;;4.07;;
20832;SDS011;56075;51.264;7.150;2022-09-29T17:56:13;5.75;;;3.38;;
20832;SDS011;56075;51.264;7.150;2022-09-29T17:58:55;10.43;;;3.00;;
20832;SDS011;56075;51.264;7.150;2022-09-29T18:01:30;12.73;;;3.60;;
20832;SDS011;56075;51.264;7.150;2022-09-29T18:04:07;6.95;;;3.50;;
20832;SDS011;56075;51.264;7.150;2022-09-29T18:06:38;5.57;;;2.80;;
20832;SDS011;56075;51.264;7.150;2022-09-29T18:09:13;6.40;;;2.75;;
20832;SDS011;56075;51.264;7.150;2022-09-29T18:11:45;7.65;;;2.75;;
20832;SDS011;56075;51.264;7.150;2022-09-29T18:14:17;8.15;;;3.38;;
20832;SDS011;56075;51.264;7.150;2022-09-29T18:16:48;8.52;;;4.90;;
20832;SDS011;56075;51.264;7.150;2022-09-29T18:19:19;12.18;;;4.22;;
20832;SDS011;56075;51.264;7.150;2022-09-29T18:21:51;7.78;;;3.60;;
20832;SDS011;56075;51.264;7.150;2022-09-29T18:24:22;11.68;;;4.13;;
20832;SDS011;56075;51.264;7.150;2022-09-29T18:26:53;9.30;;;3.65;;
20832;SDS011;56075;51.264;7.150;2022-09-29T18:29:24;9.52;;;4.43;;
20832;SDS011;56075;51.264;7.150;2022-09-29T18:31:55;9.35;;;4.07;;
20832;SDS011;56075;51.264;7.150;2022-09-29T18:34:26;10.43;;;4.53;;
20832;SDS011;56075;51.264;7.150;2022-09-29T18:37:00;8.88;;;4.43;;
20832;SDS011;56075;51.264;7.150;2022-09-29T18:39:32;8.27;;;3.83;;
20832;SDS011;56075;51.264;7.150;2022-09-29T18:42:06;11.63;;;3.73;;
20832;SDS011;56075;51.264;7.150;2022-09-29T18:44:38;8.23;;;3.83;;
20832;SDS011;56075;51.264;7.150;2022-09-29T18:47:09;8.38;;;3.40;;